sensor_id;sensor_type;location;lat;lon;timestamp;P1;durP1;ratioP1;P2;durP2;ratioP2
635;SDS011;302;50.206;8.196;2024-03-17T00:00:32;4.65;;;4.25;;
635;SDS011;302;50.206;8.196;2024-03-17T00:03:16;4.95;;;4.05;;
635;SDS011;302;50.206;8.196;2024-03-17T00:06:00;4.60;;;4.20;;
635;SDS011;302;50.206;8.196;2024-03-17T00:08:44;5.15;;;4.75;;
635;SDS011;302;50.206;8.196;2024-03-17T00:11:28;4.47;;;4.07;;
635;SDS011;302;50.206;8.196;2024-03-17T00:14:12;4.80;;;4.40;;
635;SDS011;302;50.206;8.196;2024-03-17T00:16:56;4.43;;;4.00;;
635;SDS011;302;50.206;8.196;2024-03-17T00:19:40;5.18;;;4.40;;
635;SDS011;302;50.206;8.196;2024-03-17T00:22:24;5.30;;;3.90;;
635;SDS011;302;50.206;8.196;2024-03-17T00:25:08;4.50;;;3.80;;
635;SDS011;302;50.206;8.196;2024-03-17T00:27:51;4.43;;;4.03;;
635;SDS011;302;50.206;8.196;2024-03-17T00:30:39;4.35;;;3.95;;
635;SDS011;302;50.206;8.196;2024-03-17T00:33:22;4.85;;;4.32;;
635;SDS011;302;50.206;8.196;2024-03-17T00:36:07;6.93;;;4.60;;
635;SDS011;302;50.206;8.196;2024-03-17T00:38:51;3.83;;;3.45;;
635;SDS011;302;50.206;8.196;2024-03-17T00:41:35;4.65;;;3.60;;
635;SDS011;302;50.206;8.196;2024-03-17T00:44:19;4.00;;;3.70;;
635;SDS011;302;50.206;8.196;2024-03-17T00:47:03;4.30;;;3.90;;
635;SDS011;302;50.206;8.196;2024-03-17T00:49:47;5.47;;;4.53;;
635;SDS011;302;50.206;8.196;2024-03-17T00:52:34;4.10;;;3.70;;
635;SDS011;302;50.206;8.196;2024-03-17T00:55:18;3.97;;;3.67;;
635;SDS011;302;50.206;8.196;2024-03-17T00:58:02;5.20;;;3.95;;
635;SDS011;302;50.206;8.196;2024-03-17T01:00:47;5.60;;;4.32;;
635;SDS011;302;50.206;8.196;2024-03-17T01:03:31;5.95;;;4.10;;
635;SDS011;302;50.206;8.196;2024-03-17T01:06:15;4.82;;;4.25;;
635;SDS011;302;50.206;8.196;2024-03-17T01:08:59;5.68;;;4.40;;
635;SDS011;302;50.206;8.196;2024-03-17T01:11:43;7.35;;;4.35;;
635;SDS011;302;50.206;8.196;2024-03-17T01:14:27;5.00;;;4.50;;
635;SDS011;302;50.206;8.196;2024-03-17T01:17:11;5.57;;;4.88;;
635;SDS011;302;50.206;8.196;2024-03-17T01:19:55;5.65;;;4.70;;
635;SDS011;302;50.206;8.196;2024-03-17T01:22:39;4.05;;;3.65;;
635;SDS011;302;50.206;8.196;2024-03-17T01:25:23;5.47;;;3.22;;
635;SDS011;302;50.206;8.196;2024-03-17T01:28:09;3.63;;;3.33;;
635;SDS011;302;50.206;8.196;2024-03-17T01:30:53;4.43;;;3.92;;
635;SDS011;302;50.206;8.196;2024-03-17T01:33:37;4.05;;;3.60;;
635;SDS011;302;50.206;8.196;2024-03-17T01:36:21;4.13;;;3.72;;
635;SDS011;302;50.206;8.196;2024-03-17T01:39:05;4.43;;;3.95;;
635;SDS011;302;50.206;8.196;2024-03-17T01:41:49;4.97;;;3.97;;
635;SDS011;302;50.206;8.196;2024-03-17T01:44:33;4.40;;;4.00;;
635;SDS011;302;50.206;8.196;2024-03-17T01:47:17;6.18;;;4.05;;
635;SDS011;302;50.206;8.196;2024-03-17T01:50:02;4.35;;;3.92;;
635;SDS011;302;50.206;8.196;2024-03-17T01:52:46;6.32;;;4.53;;
635;SDS011;302;50.206;8.196;2024-03-17T01:55:31;5.57;;;4.63;;
635;SDS011;302;50.206;8.196;2024-03-17T01:58:14;7.63;;;5.00;;
635;SDS011;302;50.206;8.196;2024-03-17T02:00:59;5.53;;;4.55;;
635;SDS011;302;50.206;8.196;2024-03-17T02:03:43;6.00;;;5.13;;
635;SDS011;302;50.206;8.196;2024-03-17T02:06:27;5.13;;;4.63;;
635;SDS011;302;50.206;8.196;2024-03-17T02:09:11;6.03;;;5.43;;
635;SDS011;302;50.206;8.196;2024-03-17T02:11:55;6.20;;;4.70;;
635;SDS011;302;50.206;8.196;2024-03-17T02:14:39;5.13;;;4.63;;
635;SDS011;302;50.206;8.196;2024-03-17T02:17:23;4.82;;;4.43;;
635;SDS011;302;50.206;8.196;2024-03-17T02:20:08;5.25;;;4.75;;
635;SDS011;302;50.206;8.196;2024-03-17T02:22:55;5.25;;;4.75;;
635;SDS011;302;50.206;8.196;2024-03-17T02:25:38;5.43;;;4.50;;
635;SDS011;302;50.206;8.196;2024-03-17T02:28:23;6.00;;;4.47;;
635;SDS011;302;50.206;8.196;2024-03-17T02:31:08;5.00;;;4.50;;
635;SDS011;302;50.206;8.196;2024-03-17T02:33:52;4.93;;;4.40;;
635;SDS011;302;50.206;8.196;2024-03-17T02:36:36;5.72;;;5.22;;
635;SDS011;302;50.206;8.196;2024-03-17T02:39:20;6.25;;;5.40;;
635;SDS011;302;50.206;8.196;2024-03-17T02:42:19;7.45;;;5.22;;
635;SDS011;302;50.206;8.196;2024-03-17T02:45:04;6.95;;;5.07;;
635;SDS011;302;50.206;8.196;2024-03-17T02:47:47;6.15;;;5.55;;
635;SDS011;302;50.206;8.196;2024-03-17T02:50:33;6.63;;;5.95;;
635;SDS011;302;50.206;8.196;2024-03-17T02:53:18;7.28;;;5.40;;
635;SDS011;302;50.206;8.196;2024-03-17T02:56:02;6.53;;;5.72;;
635;SDS011;302;50.206;8.196;2024-03-17T02:58:46;5.63;;;4.72;;
635;SDS011;302;50.206;8.196;2024-03-17T03:01:31;7.03;;;6.25;;
635;SDS011;302;50.206;8.196;2024-03-17T03:04:14;8.73;;;6.53;;
635;SDS011;302;50.206;8.196;2024-03-17T03:06:59;6.55;;;5.80;;
635;SDS011;302;50.206;8.196;2024-03-17T03:09:43;6.70;;;6.00;;
635;SDS011;302;50.206;8.196;2024-03-17T03:12:27;7.18;;;6.47;;
635;SDS011;302;50.206;8.196;2024-03-17T03:15:11;6.85;;;5.95;;
635;SDS011;302;50.206;8.196;2024-03-17T03:17:55;7.38;;;6.55;;
635;SDS011;302;50.206;8.196;2024-03-17T03:20:39;7.22;;;5.82;;
635;SDS011;302;50.206;8.196;2024-03-17T03:23:23;8.52;;;5.65;;
635;SDS011;302;50.206;8.196;2024-03-17T03:26:07;7.45;;;5.88;;
635;SDS011;302;50.206;8.196;2024-03-17T03:28:52;5.80;;;5.20;;
635;SDS011;302;50.206;8.196;2024-03-17T03:31:38;7.45;;;6.65;;
635;SDS011;302;50.206;8.196;2024-03-17T03:34:24;9.05;;;6.03;;
635;SDS011;302;50.206;8.196;2024-03-17T03:37:09;6.78;;;6.07;;
635;SDS011;302;50.206;8.196;2024-03-17T03:39:54;7.10;;;5.95;;
635;SDS011;302;50.206;8.196;2024-03-17T03:42:38;6.85;;;6.10;;
635;SDS011;302;50.206;8.196;2024-03-17T03:45:22;7.03;;;5.63;;
635;SDS011;302;50.206;8.196;2024-03-17T03:48:06;10.23;;;7.50;;
635;SDS011;302;50.206;8.196;2024-03-17T03:50:52;8.25;;;5.97;;
635;SDS011;302;50.206;8.196;2024-03-17T03:53:36;8.10;;;6.95;;
635;SDS011;302;50.206;8.196;2024-03-17T03:56:20;9.52;;;6.93;;
635;SDS011;302;50.206;8.196;2024-03-17T03:59:04;9.70;;;6.90;;
635;SDS011;302;50.206;8.196;2024-03-17T04:01:49;8.00;;;7.20;;
635;SDS011;302;50.206;8.196;2024-03-17T04:04:33;8.18;;;7.32;;
635;SDS011;302;50.206;8.196;2024-03-17T04:07:17;8.65;;;6.65;;
635;SDS011;302;50.206;8.196;2024-03-17T04:10:02;8.85;;;7.78;;
635;SDS011;302;50.206;8.196;2024-03-17T04:12:46;9.80;;;7.90;;
635;SDS011;302;50.206;8.196;2024-03-17T04:15:31;9.52;;;7.47;;
635;SDS011;302;50.206;8.196;2024-03-17T04:18:15;9.25;;;7.15;;
635;SDS011;302;50.206;8.196;2024-03-17T04:21:02;9.73;;;6.80;;
635;SDS011;302;50.206;8.196;2024-03-17T04:23:53;7.65;;;6.10;;
635;SDS011;302;50.206;8.196;2024-03-17T04:26:37;7.22;;;6.15;;
635;SDS011;302;50.206;8.196;2024-03-17T04:29:21;6.05;;;5.43;;
635;SDS011;302;50.206;8.196;2024-03-17T04:32:05;7.93;;;6.15;;
635;SDS011;302;50.206;8.196;2024-03-17T04:34:49;8.23;;;7.07;;
635;SDS011;302;50.206;8.196;2024-03-17T04:37:33;11.63;;;8.57;;
635;SDS011;302;50.206;8.196;2024-03-17T04:40:22;8.35;;;7.07;;
635;SDS011;302;50.206;8.196;2024-03-17T04:43:06;8.65;;;6.80;;
635;SDS011;302;50.206;8.196;2024-03-17T04:45:58;6.85;;;5.75;;
635;SDS011;302;50.206;8.196;2024-03-17T04:48:42;6.63;;;5.60;;
635;SDS011;302;50.206;8.196;2024-03-17T04:51:26;9.50;;;6.43;;
635;SDS011;302;50.206;8.196;2024-03-17T04:54:10;6.07;;;5.18;;
635;SDS011;302;50.206;8.196;2024-03-17T04:56:54;5.95;;;4.65;;
635;SDS011;302;50.206;8.196;2024-03-17T04:59:38;6.88;;;5.55;;
635;SDS011;302;50.206;8.196;2024-03-17T05:02:22;5.65;;;5.15;;
635;SDS011;302;50.206;8.196;2024-03-17T05:05:06;5.10;;;4.40;;
635;SDS011;302;50.206;8.196;2024-03-17T05:07:51;4.38;;;3.78;;
635;SDS011;302;50.206;8.196;2024-03-17T05:10:35;3.85;;;3.55;;
635;SDS011;302;50.206;8.196;2024-03-17T05:13:19;4.35;;;3.55;;
635;SDS011;302;50.206;8.196;2024-03-17T05:16:03;4.07;;;3.75;;
635;SDS011;302;50.206;8.196;2024-03-17T05:18:48;3.30;;;3.00;;
635;SDS011;302;50.206;8.196;2024-03-17T05:21:32;3.80;;;3.30;;
635;SDS011;302;50.206;8.196;2024-03-17T05:24:16;3.80;;;3.50;;
635;SDS011;302;50.206;8.196;2024-03-17T05:27:01;3.60;;;3.30;;
635;SDS011;302;50.206;8.196;2024-03-17T05:29:45;8.70;;;3.33;;
635;SDS011;302;50.206;8.196;2024-03-17T05:32:29;3.58;;;3.20;;
635;SDS011;302;50.206;8.196;2024-03-17T05:35:13;3.75;;;3.42;;
635;SDS011;302;50.206;8.196;2024-03-17T05:37:57;4.47;;;3.28;;
635;SDS011;302;50.206;8.196;2024-03-17T05:40:41;3.10;;;2.78;;
635;SDS011;302;50.206;8.196;2024-03-17T05:43:25;3.45;;;2.90;;
635;SDS011;302;50.206;8.196;2024-03-17T05:46:11;3.65;;;3.10;;
635;SDS011;302;50.206;8.196;2024-03-17T05:48:55;3.75;;;3.45;;
635;SDS011;302;50.206;8.196;2024-03-17T05:51:39;4.18;;;3.05;;
635;SDS011;302;50.206;8.196;2024-03-17T05:54:23;3.72;;;3.42;;
635;SDS011;302;50.206;8.196;2024-03-17T05:57:09;3.53;;;3.22;;
635;SDS011;302;50.206;8.196;2024-03-17T05:59:55;3.10;;;2.90;;
635;SDS011;302;50.206;8.196;2024-03-17T06:02:39;3.80;;;3.50;;
635;SDS011;302;50.206;8.196;2024-03-17T06:05:23;3.30;;;3.00;;
635;SDS011;302;50.206;8.196;2024-03-17T06:08:07;3.10;;;2.90;;
635;SDS011;302;50.206;8.196;2024-03-17T06:10:52;3.45;;;3.15;;
635;SDS011;302;50.206;8.196;2024-03-17T06:13:36;3.35;;;3.10;;
635;SDS011;302;50.206;8.196;2024-03-17T06:16:20;4.40;;;3.60;;
635;SDS011;302;50.206;8.196;2024-03-17T06:19:04;3.08;;;2.88;;
635;SDS011;302;50.206;8.196;2024-03-17T06:21:49;3.90;;;3.42;;
635;SDS011;302;50.206;8.196;2024-03-17T06:24:35;5.00;;;3.53;;
635;SDS011;302;50.206;8.196;2024-03-17T06:27:19;4.07;;;3.67;;
635;SDS011;302;50.206;8.196;2024-03-17T06:30:03;3.40;;;3.10;;
635;SDS011;302;50.206;8.196;2024-03-17T06:32:47;3.25;;;3.03;;
635;SDS011;302;50.206;8.196;2024-03-17T06:35:31;3.67;;;3.17;;
635;SDS011;302;50.206;8.196;2024-03-17T06:38:15;3.63;;;3.33;;
635;SDS011;302;50.206;8.196;2024-03-17T06:40:59;3.30;;;2.92;;
635;SDS011;302;50.206;8.196;2024-03-17T06:43:43;4.03;;;2.70;;
635;SDS011;302;50.206;8.196;2024-03-17T06:46:28;3.10;;;2.80;;
635;SDS011;302;50.206;8.196;2024-03-17T06:49:12;3.05;;;2.75;;
635;SDS011;302;50.206;8.196;2024-03-17T06:51:56;3.47;;;3.17;;
635;SDS011;302;50.206;8.196;2024-03-17T06:54:40;2.75;;;2.55;;
635;SDS011;302;50.206;8.196;2024-03-17T06:57:24;3.17;;;2.80;;
635;SDS011;302;50.206;8.196;2024-03-17T07:00:09;4.05;;;2.88;;
635;SDS011;302;50.206;8.196;2024-03-17T07:02:57;2.50;;;2.30;;
635;SDS011;302;50.206;8.196;2024-03-17T07:05:41;2.90;;;2.70;;
635;SDS011;302;50.206;8.196;2024-03-17T07:08:25;3.17;;;2.47;;
635;SDS011;302;50.206;8.196;2024-03-17T07:11:09;2.53;;;2.33;;
635;SDS011;302;50.206;8.196;2024-03-17T07:13:53;3.03;;;2.50;;
635;SDS011;302;50.206;8.196;2024-03-17T07:16:37;2.63;;;2.42;;
635;SDS011;302;50.206;8.196;2024-03-17T07:19:20;2.45;;;2.25;;
635;SDS011;302;50.206;8.196;2024-03-17T07:22:05;2.60;;;2.40;;
635;SDS011;302;50.206;8.196;2024-03-17T07:24:48;2.80;;;2.60;;
635;SDS011;302;50.206;8.196;2024-03-17T07:27:38;3.95;;;2.40;;
635;SDS011;302;50.206;8.196;2024-03-17T07:30:22;2.78;;;2.58;;
635;SDS011;302;50.206;8.196;2024-03-17T07:33:06;3.42;;;2.60;;
635;SDS011;302;50.206;8.196;2024-03-17T07:35:51;2.92;;;2.58;;
635;SDS011;302;50.206;8.196;2024-03-17T07:38:35;3.00;;;2.20;;
635;SDS011;302;50.206;8.196;2024-03-17T07:41:19;4.65;;;3.63;;
635;SDS011;302;50.206;8.196;2024-03-17T07:44:03;5.05;;;4.55;;
635;SDS011;302;50.206;8.196;2024-03-17T07:46:47;8.48;;;7.57;;
635;SDS011;302;50.206;8.196;2024-03-17T07:49:31;8.20;;;7.38;;
635;SDS011;302;50.206;8.196;2024-03-17T07:52:15;5.45;;;4.93;;
635;SDS011;302;50.206;8.196;2024-03-17T07:54:59;3.85;;;3.55;;
635;SDS011;302;50.206;8.196;2024-03-17T07:57:43;3.25;;;2.90;;
635;SDS011;302;50.206;8.196;2024-03-17T08:00:27;3.10;;;2.90;;
635;SDS011;302;50.206;8.196;2024-03-17T08:03:11;3.58;;;3.28;;
635;SDS011;302;50.206;8.196;2024-03-17T08:05:55;3.28;;;2.97;;
635;SDS011;302;50.206;8.196;2024-03-17T08:08:39;3.30;;;3.00;;
635;SDS011;302;50.206;8.196;2024-03-17T08:11:23;2.42;;;2.25;;
635;SDS011;302;50.206;8.196;2024-03-17T08:14:08;3.03;;;2.75;;
635;SDS011;302;50.206;8.196;2024-03-17T08:16:51;3.00;;;2.80;;
635;SDS011;302;50.206;8.196;2024-03-17T08:19:35;3.20;;;2.90;;
635;SDS011;302;50.206;8.196;2024-03-17T08:22:19;3.35;;;2.50;;
635;SDS011;302;50.206;8.196;2024-03-17T08:25:03;2.78;;;2.58;;
635;SDS011;302;50.206;8.196;2024-03-17T08:27:48;3.97;;;2.60;;
635;SDS011;302;50.206;8.196;2024-03-17T08:30:32;2.75;;;2.55;;
635;SDS011;302;50.206;8.196;2024-03-17T08:33:16;2.42;;;2.22;;
635;SDS011;302;50.206;8.196;2024-03-17T08:36:01;2.95;;;2.10;;
635;SDS011;302;50.206;8.196;2024-03-17T08:38:45;2.80;;;2.50;;
635;SDS011;302;50.206;8.196;2024-03-17T08:41:29;2.60;;;2.40;;
635;SDS011;302;50.206;8.196;2024-03-17T08:44:14;2.33;;;2.13;;
635;SDS011;302;50.206;8.196;2024-03-17T08:46:58;2.38;;;2.17;;
635;SDS011;302;50.206;8.196;2024-03-17T08:49:42;3.00;;;2.70;;
635;SDS011;302;50.206;8.196;2024-03-17T08:52:26;3.08;;;2.78;;
635;SDS011;302;50.206;8.196;2024-03-17T08:55:10;3.20;;;2.90;;
635;SDS011;302;50.206;8.196;2024-03-17T08:57:57;2.97;;;2.55;;
635;SDS011;302;50.206;8.196;2024-03-17T09:00:41;3.00;;;2.65;;
635;SDS011;302;50.206;8.196;2024-03-17T09:03:25;2.72;;;2.53;;
635;SDS011;302;50.206;8.196;2024-03-17T09:06:16;2.50;;;2.30;;
635;SDS011;302;50.206;8.196;2024-03-17T09:09:00;3.13;;;2.80;;
635;SDS011;302;50.206;8.196;2024-03-17T09:11:46;4.28;;;2.50;;
635;SDS011;302;50.206;8.196;2024-03-17T09:14:30;3.25;;;2.95;;
635;SDS011;302;50.206;8.196;2024-03-17T09:17:15;4.13;;;3.72;;
635;SDS011;302;50.206;8.196;2024-03-17T09:19:59;3.38;;;3.08;;
635;SDS011;302;50.206;8.196;2024-03-17T09:22:43;4.07;;;3.65;;
635;SDS011;302;50.206;8.196;2024-03-17T09:25:27;4.15;;;3.75;;
635;SDS011;302;50.206;8.196;2024-03-17T09:28:10;3.90;;;3.60;;
635;SDS011;302;50.206;8.196;2024-03-17T09:30:55;3.90;;;3.60;;
635;SDS011;302;50.206;8.196;2024-03-17T09:33:39;4.20;;;3.80;;
635;SDS011;302;50.206;8.196;2024-03-17T09:36:23;5.05;;;4.22;;
635;SDS011;302;50.206;8.196;2024-03-17T09:39:07;3.67;;;3.38;;
635;SDS011;302;50.206;8.196;2024-03-17T09:41:51;4.22;;;3.58;;
635;SDS011;302;50.206;8.196;2024-03-17T09:44:35;4.63;;;4.10;;
635;SDS011;302;50.206;8.196;2024-03-17T09:47:21;3.50;;;3.20;;
635;SDS011;302;50.206;8.196;2024-03-17T09:50:05;5.63;;;3.92;;
635;SDS011;302;50.206;8.196;2024-03-17T09:52:55;4.57;;;4.13;;
635;SDS011;302;50.206;8.196;2024-03-17T09:55:39;4.57;;;4.18;;
635;SDS011;302;50.206;8.196;2024-03-17T09:58:23;3.85;;;3.55;;
635;SDS011;302;50.206;8.196;2024-03-17T10:01:07;3.88;;;3.55;;
635;SDS011;302;50.206;8.196;2024-03-17T10:03:52;4.15;;;3.75;;
635;SDS011;302;50.206;8.196;2024-03-17T10:06:45;5.18;;;3.88;;
635;SDS011;302;50.206;8.196;2024-03-17T10:09:30;4.57;;;4.07;;
635;SDS011;302;50.206;8.196;2024-03-17T10:12:28;4.07;;;3.67;;
635;SDS011;302;50.206;8.196;2024-03-17T10:15:12;4.80;;;3.88;;
635;SDS011;302;50.206;8.196;2024-03-17T10:17:56;4.60;;;3.70;;
635;SDS011;302;50.206;8.196;2024-03-17T10:20:40;4.03;;;3.63;;
635;SDS011;302;50.206;8.196;2024-03-17T10:23:24;4.80;;;4.30;;
635;SDS011;302;50.206;8.196;2024-03-17T10:26:13;4.18;;;3.78;;
635;SDS011;302;50.206;8.196;2024-03-17T10:28:58;4.80;;;4.32;;
635;SDS011;302;50.206;8.196;2024-03-17T10:31:42;5.30;;;4.80;;
635;SDS011;302;50.206;8.196;2024-03-17T10:34:26;6.25;;;4.93;;
635;SDS011;302;50.206;8.196;2024-03-17T10:37:18;4.75;;;4.25;;
635;SDS011;302;50.206;8.196;2024-03-17T10:40:04;4.88;;;4.47;;
635;SDS011;302;50.206;8.196;2024-03-17T10:42:48;4.55;;;4.15;;
635;SDS011;302;50.206;8.196;2024-03-17T10:45:33;6.05;;;4.65;;
635;SDS011;302;50.206;8.196;2024-03-17T10:48:22;4.65;;;4.25;;
635;SDS011;302;50.206;8.196;2024-03-17T10:51:13;5.35;;;4.82;;
635;SDS011;302;50.206;8.196;2024-03-17T10:53:58;4.68;;;4.28;;
635;SDS011;302;50.206;8.196;2024-03-17T10:56:42;5.00;;;4.55;;
635;SDS011;302;50.206;8.196;2024-03-17T10:59:38;7.70;;;5.03;;
635;SDS011;302;50.206;8.196;2024-03-17T11:02:24;6.45;;;5.80;;
635;SDS011;302;50.206;8.196;2024-03-17T11:05:10;6.35;;;5.45;;
635;SDS011;302;50.206;8.196;2024-03-17T11:07:57;4.90;;;4.50;;
635;SDS011;302;50.206;8.196;2024-03-17T11:10:49;5.72;;;5.22;;
635;SDS011;302;50.206;8.196;2024-03-17T11:13:33;6.10;;;5.50;;
635;SDS011;302;50.206;8.196;2024-03-17T11:16:25;5.30;;;4.80;;
635;SDS011;302;50.206;8.196;2024-03-17T11:19:13;6.07;;;4.78;;
635;SDS011;302;50.206;8.196;2024-03-17T11:22:01;5.80;;;4.95;;
635;SDS011;302;50.206;8.196;2024-03-17T11:28:07;4.60;;;4.20;;
635;SDS011;302;50.206;8.196;2024-03-17T11:30:53;7.40;;;5.10;;
635;SDS011;302;50.206;8.196;2024-03-17T11:33:50;6.05;;;5.53;;
635;SDS011;302;50.206;8.196;2024-03-17T11:36:37;5.43;;;4.93;;
635;SDS011;302;50.206;8.196;2024-03-17T11:39:45;5.72;;;4.88;;
635;SDS011;302;50.206;8.196;2024-03-17T11:42:26;5.47;;;5.03;;
635;SDS011;302;50.206;8.196;2024-03-17T11:45:12;5.72;;;5.07;;
635;SDS011;302;50.206;8.196;2024-03-17T11:48:00;5.43;;;5.03;;
635;SDS011;302;50.206;8.196;2024-03-17T11:50:44;5.03;;;4.57;;
635;SDS011;302;50.206;8.196;2024-03-17T11:53:28;5.28;;;4.50;;
635;SDS011;302;50.206;8.196;2024-03-17T11:56:13;6.05;;;5.35;;
635;SDS011;302;50.206;8.196;2024-03-17T11:59:03;5.40;;;5.00;;
635;SDS011;302;50.206;8.196;2024-03-17T12:01:50;6.28;;;5.63;;
635;SDS011;302;50.206;8.196;2024-03-17T12:04:38;6.10;;;4.88;;
635;SDS011;302;50.206;8.196;2024-03-17T12:07:23;5.72;;;5.10;;
635;SDS011;302;50.206;8.196;2024-03-17T12:10:07;6.90;;;5.85;;
635;SDS011;302;50.206;8.196;2024-03-17T12:12:53;5.97;;;5.22;;
635;SDS011;302;50.206;8.196;2024-03-17T12:15:37;5.75;;;5.25;;
635;SDS011;302;50.206;8.196;2024-03-17T12:18:21;6.75;;;5.25;;
635;SDS011;302;50.206;8.196;2024-03-17T12:21:12;5.60;;;5.10;;
635;SDS011;302;50.206;8.196;2024-03-17T12:23:57;6.28;;;5.65;;
635;SDS011;302;50.206;8.196;2024-03-17T12:26:42;6.00;;;5.50;;
635;SDS011;302;50.206;8.196;2024-03-17T12:29:27;5.80;;;5.40;;
635;SDS011;302;50.206;8.196;2024-03-17T12:32:15;7.55;;;6.30;;
635;SDS011;302;50.206;8.196;2024-03-17T12:35:02;6.50;;;5.90;;
635;SDS011;302;50.206;8.196;2024-03-17T12:37:46;6.80;;;6.10;;
635;SDS011;302;50.206;8.196;2024-03-17T12:40:30;6.07;;;5.47;;
635;SDS011;302;50.206;8.196;2024-03-17T12:43:17;6.72;;;6.03;;
635;SDS011;302;50.206;8.196;2024-03-17T12:46:01;8.95;;;5.40;;
635;SDS011;302;50.206;8.196;2024-03-17T12:48:46;6.18;;;5.60;;
635;SDS011;302;50.206;8.196;2024-03-17T12:51:33;7.15;;;6.45;;
635;SDS011;302;50.206;8.196;2024-03-17T12:54:21;6.88;;;6.18;;
635;SDS011;302;50.206;8.196;2024-03-17T12:57:07;7.88;;;6.05;;
635;SDS011;302;50.206;8.196;2024-03-17T13:00:18;6.90;;;5.65;;
635;SDS011;302;50.206;8.196;2024-03-17T13:03:25;6.43;;;5.80;;
635;SDS011;302;50.206;8.196;2024-03-17T13:06:10;6.40;;;5.80;;
635;SDS011;302;50.206;8.196;2024-03-17T13:08:54;5.35;;;4.85;;
635;SDS011;302;50.206;8.196;2024-03-17T13:11:38;6.05;;;5.55;;
635;SDS011;302;50.206;8.196;2024-03-17T13:14:22;6.57;;;5.85;;
635;SDS011;302;50.206;8.196;2024-03-17T13:17:06;9.13;;;6.03;;
635;SDS011;302;50.206;8.196;2024-03-17T13:19:50;7.20;;;6.50;;
635;SDS011;302;50.206;8.196;2024-03-17T13:22:34;7.18;;;6.47;;
635;SDS011;302;50.206;8.196;2024-03-17T13:25:20;5.43;;;4.97;;
635;SDS011;302;50.206;8.196;2024-03-17T13:28:06;5.75;;;5.22;;
635;SDS011;302;50.206;8.196;2024-03-17T13:30:50;6.80;;;5.80;;
635;SDS011;302;50.206;8.196;2024-03-17T13:33:34;7.72;;;7.03;;
635;SDS011;302;50.206;8.196;2024-03-17T13:36:18;7.20;;;6.50;;
635;SDS011;302;50.206;8.196;2024-03-17T13:39:02;6.88;;;6.15;;
635;SDS011;302;50.206;8.196;2024-03-17T13:41:46;7.32;;;6.72;;
635;SDS011;302;50.206;8.196;2024-03-17T13:44:30;6.55;;;5.95;;
635;SDS011;302;50.206;8.196;2024-03-17T13:47:14;7.55;;;6.88;;
635;SDS011;302;50.206;8.196;2024-03-17T13:49:58;7.60;;;6.90;;
635;SDS011;302;50.206;8.196;2024-03-17T13:52:42;7.72;;;6.95;;
635;SDS011;302;50.206;8.196;2024-03-17T13:55:26;6.90;;;6.18;;
635;SDS011;302;50.206;8.196;2024-03-17T13:58:10;7.97;;;6.75;;
635;SDS011;302;50.206;8.196;2024-03-17T14:00:56;7.28;;;6.55;;
635;SDS011;302;50.206;8.196;2024-03-17T14:03:40;8.20;;;7.20;;
635;SDS011;302;50.206;8.196;2024-03-17T14:06:25;7.60;;;6.90;;
635;SDS011;302;50.206;8.196;2024-03-17T14:09:09;8.65;;;6.90;;
635;SDS011;302;50.206;8.196;2024-03-17T14:11:53;8.02;;;6.85;;
635;SDS011;302;50.206;8.196;2024-03-17T14:14:36;7.93;;;6.88;;
635;SDS011;302;50.206;8.196;2024-03-17T14:17:21;7.82;;;7.05;;
635;SDS011;302;50.206;8.196;2024-03-17T14:20:06;10.07;;;7.20;;
635;SDS011;302;50.206;8.196;2024-03-17T14:22:53;8.55;;;7.65;;
635;SDS011;302;50.206;8.196;2024-03-17T14:25:37;8.40;;;6.75;;
635;SDS011;302;50.206;8.196;2024-03-17T14:28:22;8.70;;;7.80;;
635;SDS011;302;50.206;8.196;2024-03-17T14:31:06;8.35;;;7.47;;
635;SDS011;302;50.206;8.196;2024-03-17T14:33:50;9.18;;;8.20;;
635;SDS011;302;50.206;8.196;2024-03-17T14:36:34;7.32;;;6.63;;
635;SDS011;302;50.206;8.196;2024-03-17T14:39:18;8.18;;;7.38;;
635;SDS011;302;50.206;8.196;2024-03-17T14:42:03;8.20;;;7.40;;
635;SDS011;302;50.206;8.196;2024-03-17T14:44:48;7.75;;;6.95;;
635;SDS011;302;50.206;8.196;2024-03-17T14:47:32;9.25;;;7.80;;
635;SDS011;302;50.206;8.196;2024-03-17T14:50:16;8.27;;;7.47;;
635;SDS011;302;50.206;8.196;2024-03-17T14:53:00;11.50;;;7.20;;
635;SDS011;302;50.206;8.196;2024-03-17T14:55:44;8.45;;;7.65;;
635;SDS011;302;50.206;8.196;2024-03-17T14:58:28;7.97;;;7.15;;
635;SDS011;302;50.206;8.196;2024-03-17T15:01:12;8.30;;;7.03;;
635;SDS011;302;50.206;8.196;2024-03-17T15:03:56;9.48;;;7.20;;
635;SDS011;302;50.206;8.196;2024-03-17T15:06:40;7.88;;;7.18;;
635;SDS011;302;50.206;8.196;2024-03-17T15:09:24;8.18;;;7.25;;
635;SDS011;302;50.206;8.196;2024-03-17T15:12:08;8.57;;;7.78;;
635;SDS011;302;50.206;8.196;2024-03-17T15:14:52;8.18;;;7.40;;
635;SDS011;302;50.206;8.196;2024-03-17T15:17:36;7.93;;;7.22;;
635;SDS011;302;50.206;8.196;2024-03-17T15:20:20;8.70;;;7.80;;
635;SDS011;302;50.206;8.196;2024-03-17T15:23:05;8.75;;;7.95;;
635;SDS011;302;50.206;8.196;2024-03-17T15:25:49;8.02;;;7.30;;
635;SDS011;302;50.206;8.196;2024-03-17T15:28:33;8.20;;;7.50;;
635;SDS011;302;50.206;8.196;2024-03-17T15:31:17;8.75;;;7.85;;
635;SDS011;302;50.206;8.196;2024-03-17T15:34:01;8.18;;;6.50;;
635;SDS011;302;50.206;8.196;2024-03-17T15:36:45;7.65;;;6.95;;
635;SDS011;302;50.206;8.196;2024-03-17T15:39:29;8.15;;;6.82;;
635;SDS011;302;50.206;8.196;2024-03-17T15:42:13;6.85;;;6.25;;
635;SDS011;302;50.206;8.196;2024-03-17T15:44:57;7.50;;;6.90;;
635;SDS011;302;50.206;8.196;2024-03-17T15:47:41;7.28;;;6.57;;
635;SDS011;302;50.206;8.196;2024-03-17T15:50:25;8.35;;;6.68;;
635;SDS011;302;50.206;8.196;2024-03-17T15:53:09;7.50;;;6.80;;
635;SDS011;302;50.206;8.196;2024-03-17T15:55:54;7.38;;;6.68;;
635;SDS011;302;50.206;8.196;2024-03-17T15:58:38;8.60;;;7.18;;
635;SDS011;302;50.206;8.196;2024-03-17T16:01:25;8.00;;;7.20;;
635;SDS011;302;50.206;8.196;2024-03-17T16:04:10;8.15;;;6.63;;
635;SDS011;302;50.206;8.196;2024-03-17T16:06:54;8.00;;;7.20;;
635;SDS011;302;50.206;8.196;2024-03-17T16:09:41;7.90;;;6.63;;
635;SDS011;302;50.206;8.196;2024-03-17T16:12:25;10.23;;;7.38;;
635;SDS011;302;50.206;8.196;2024-03-17T16:15:09;8.77;;;7.60;;
635;SDS011;302;50.206;8.196;2024-03-17T16:17:53;8.32;;;7.47;;
635;SDS011;302;50.206;8.196;2024-03-17T16:23:31;8.45;;;7.65;;
635;SDS011;302;50.206;8.196;2024-03-17T16:26:17;8.05;;;7.25;;
635;SDS011;302;50.206;8.196;2024-03-17T16:29:01;9.13;;;7.40;;
635;SDS011;302;50.206;8.196;2024-03-17T16:31:46;9.43;;;8.43;;
635;SDS011;302;50.206;8.196;2024-03-17T16:34:30;9.38;;;8.40;;
635;SDS011;302;50.206;8.196;2024-03-17T16:37:14;11.15;;;8.70;;
635;SDS011;302;50.206;8.196;2024-03-17T16:39:58;8.45;;;7.75;;
635;SDS011;302;50.206;8.196;2024-03-17T16:42:42;10.38;;;9.25;;
635;SDS011;302;50.206;8.196;2024-03-17T16:45:26;9.82;;;8.20;;
635;SDS011;302;50.206;8.196;2024-03-17T16:48:11;8.85;;;7.95;;
635;SDS011;302;50.206;8.196;2024-03-17T16:50:55;7.75;;;7.05;;
635;SDS011;302;50.206;8.196;2024-03-17T16:53:39;8.82;;;7.88;;
635;SDS011;302;50.206;8.196;2024-03-17T16:56:23;9.57;;;8.45;;
635;SDS011;302;50.206;8.196;2024-03-17T16:59:07;9.25;;;8.07;;
635;SDS011;302;50.206;8.196;2024-03-17T17:01:51;9.27;;;8.38;;
635;SDS011;302;50.206;8.196;2024-03-17T17:04:35;9.60;;;8.10;;
635;SDS011;302;50.206;8.196;2024-03-17T17:07:19;8.13;;;7.35;;
635;SDS011;302;50.206;8.196;2024-03-17T17:10:04;9.27;;;7.80;;
635;SDS011;302;50.206;8.196;2024-03-17T17:12:47;8.75;;;7.60;;
635;SDS011;302;50.206;8.196;2024-03-17T17:15:32;8.73;;;6.85;;
635;SDS011;302;50.206;8.196;2024-03-17T17:21:23;7.55;;;6.80;;
635;SDS011;302;50.206;8.196;2024-03-17T17:24:07;8.20;;;7.40;;
635;SDS011;302;50.206;8.196;2024-03-17T17:26:56;8.27;;;7.43;;
635;SDS011;302;50.206;8.196;2024-03-17T17:29:41;9.50;;;7.72;;
635;SDS011;302;50.206;8.196;2024-03-17T17:32:25;11.43;;;7.20;;
635;SDS011;302;50.206;8.196;2024-03-17T17:35:09;9.40;;;7.35;;
635;SDS011;302;50.206;8.196;2024-03-17T17:37:52;8.32;;;7.53;;
635;SDS011;302;50.206;8.196;2024-03-17T17:40:40;10.30;;;8.02;;
635;SDS011;302;50.206;8.196;2024-03-17T17:43:24;11.45;;;7.63;;
635;SDS011;302;50.206;8.196;2024-03-17T17:46:08;8.75;;;6.50;;